Time;durP1;ratioP1;P1;durP2;ratioP2;P2;SDS_P1;SDS_P2;PMS_P1;PMS_P2;Temp;Humidity;BMP_temperature;BMP_pressure;BME280_temperature;BME280_humidity;BME280_pressure;Samples;Min_cycle;Max_cycle;Signal;HPM_P1;HPM_P2
2022/12/06 00:01:44;;;;;;;4.10;2.40;;;;;;;;;;5049378;28;20032;-75
2022/12/06 00:04:12;;;;;;;5.30;2.85;;;;;;;;;;5049235;28;20021;-74
2022/12/06 00:06:41;;;;;;;5.43;2.70;;;;;;;;;;5049080;28;20029;-75
2022/12/06 00:09:06;;;;;;;4.90;2.60;;;;;;;;;;5049241;28;20033;-75
2022/12/06 00:11:33;;;;;;;6.85;3.15;;;;;;;;;;5049369;28;20036;-74
2022/12/06 00:14:04;;;;;;;7.45;3.78;;;;;;;;;;5048948;28;20021;-74
2022/12/06 00:16:31;;;;;;;6.13;3.15;;;;;;;;;;5049068;28;20039;-74
2022/12/06 00:18:57;;;;;;;5.90;3.42;;;;;;;;;;5048862;28;20025;-74
2022/12/06 00:21:27;;;;;;;10.32;4.03;;;;;;;;;;5048900;28;20099;-74
2022/12/06 00:24:00;;;;;;;7.90;4.07;;;;;;;;;;5048912;28;20132;-74
2022/12/06 00:26:27;;;;;;;7.65;4.10;;;;;;;;;;5048938;28;20067;-75
2022/12/06 00:28:54;;;;;;;9.18;4.55;;;;;;;;;;5048711;28;20508;-74
2022/12/06 00:31:22;;;;;;;11.52;4.80;;;;;;;;;;5049013;28;20496;-75
2022/12/06 00:33:48;;;;;;;7.30;3.90;;;;;;;;;;5048729;28;20025;-73
2022/12/06 00:36:16;;;;;;;8.23;4.20;;;;;;;;;;5048669;28;20033;-74
2022/12/06 00:38:42;;;;;;;8.57;4.50;;;;;;;;;;5048459;28;20029;-74
2022/12/06 00:41:10;;;;;;;8.82;4.25;;;;;;;;;;5048706;28;20056;-75
2022/12/06 00:43:36;;;;;;;7.40;3.97;;;;;;;;;;5048412;28;20112;-75
2022/12/06 00:46:02;;;;;;;7.65;3.97;;;;;;;;;;5048856;28;20574;-75
2022/12/06 00:48:28;;;;;;;8.70;4.50;;;;;;;;;;5048223;28;20051;-76
2022/12/06 00:50:54;;;;;;;10.15;4.43;;;;;;;;;;5049040;28;20060;-75
2022/12/06 00:53:20;;;;;;;10.75;4.85;;;;;;;;;;5048355;28;20045;-76
2022/12/06 00:55:46;;;;;;;8.15;4.55;;;;;;;;;;5046984;28;20025;-76
2022/12/06 00:58:12;;;;;;;8.00;3.92;;;;;;;;;;5048144;28;20028;-76
2022/12/06 01:00:37;;;;;;;7.63;3.20;;;;;;;;;;5048364;28;20024;-76
2022/12/06 01:03:03;;;;;;;5.53;2.90;;;;;;;;;;5048490;28;20052;-76
2022/12/06 01:05:29;;;;;;;8.48;2.85;;;;;;;;;;5048273;28;20021;-76
2022/12/06 01:07:55;;;;;;;4.93;3.00;;;;;;;;;;5048208;28;20505;-76
2022/12/06 01:10:20;;;;;;;7.53;3.40;;;;;;;;;;5048005;28;20029;-76
2022/12/06 01:12:46;;;;;;;9.63;3.20;;;;;;;;;;5048214;28;20036;-75
2022/12/06 01:15:12;;;;;;;6.47;3.83;;;;;;;;;;5047917;28;20557;-76
2022/12/06 01:17:37;;;;;;;7.80;3.90;;;;;;;;;;5048080;28;20037;-76
2022/12/06 01:20:04;;;;;;;5.65;3.30;;;;;;;;;;5048034;28;20031;-76
2022/12/06 01:22:30;;;;;;;6.68;3.50;;;;;;;;;;5048015;28;20033;-76
2022/12/06 01:24:55;;;;;;;7.03;3.60;;;;;;;;;;5047875;28;20032;-75
2022/12/06 01:27:20;;;;;;;7.10;3.75;;;;;;;;;;5047718;28;20028;-76
2022/12/06 01:29:46;;;;;;;5.78;3.47;;;;;;;;;;5047872;28;20028;-76
2022/12/06 01:32:11;;;;;;;5.97;3.38;;;;;;;;;;5047957;28;20033;-76
2022/12/06 01:34:37;;;;;;;8.75;3.38;;;;;;;;;;5047731;28;20519;-76
2022/12/06 01:37:03;;;;;;;6.13;3.30;;;;;;;;;;5047712;28;20021;-76
2022/12/06 01:39:28;;;;;;;6.63;3.40;;;;;;;;;;5047709;28;20021;-76
2022/12/06 01:41:53;;;;;;;6.38;3.30;;;;;;;;;;5048226;28;20021;-74
2022/12/06 01:44:41;;;;;;;8.43;3.22;;;;;;;;;;5047511;28;20432;-75
2022/12/06 01:47:12;;;;;;;6.00;2.83;;;;;;;;;;5047453;28;20040;-74
2022/12/06 01:49:40;;;;;;;5.15;3.28;;;;;;;;;;5047288;28;20029;-75
2022/12/06 01:52:09;;;;;;;5.35;3.00;;;;;;;;;;5047433;28;20492;-74
2022/12/06 01:54:35;;;;;;;7.85;3.25;;;;;;;;;;5047517;28;20029;-75
2022/12/06 01:57:04;;;;;;;6.10;3.30;;;;;;;;;;5047525;27;20488;-74
2022/12/06 01:59:29;;;;;;;7.53;3.95;;;;;;;;;;5047356;28;20021;-75
2022/12/06 02:01:55;;;;;;;6.60;3.00;;;;;;;;;;5047553;28;20043;-74
2022/12/06 02:04:22;;;;;;;5.70;2.92;;;;;;;;;;5047730;28;20091;-74
2022/12/06 02:06:49;;;;;;;7.18;3.30;;;;;;;;;;5046912;28;20475;-74
2022/12/06 02:09:16;;;;;;;5.28;3.05;;;;;;;;;;5047383;28;20025;-74
2022/12/06 02:11:42;;;;;;;5.88;3.00;;;;;;;;;;5047284;28;20029;-74
2022/12/06 02:14:12;;;;;;;7.05;3.50;;;;;;;;;;5047298;28;20404;-74
2022/12/06 02:17:02;;;;;;;6.23;3.03;;;;;;;;;;5047245;28;20033;-75
2022/12/06 02:19:36;;;;;;;5.28;3.00;;;;;;;;;;5047384;28;20059;-74
2022/12/06 02:22:16;;;;;;;6.68;3.08;;;;;;;;;;5047230;28;20032;-74
2022/12/06 02:25:17;;;;;;;6.43;3.35;;;;;;;;;;5046955;28;20028;-75
2022/12/06 02:28:04;;;;;;;7.20;3.33;;;;;;;;;;5046882;28;20027;-75
2022/12/06 02:30:39;;;;;;;5.47;3.08;;;;;;;;;;5047007;28;20025;-75
2022/12/06 02:33:07;;;;;;;6.72;3.20;;;;;;;;;;5047296;28;20025;-75
2022/12/06 02:35:49;;;;;;;5.10;3.00;;;;;;;;;;5046965;28;20021;-75
2022/12/06 02:38:42;;;;;;;5.35;3.10;;;;;;;;;;5047010;28;20570;-75
2022/12/06 02:41:13;;;;;;;5.60;2.97;;;;;;;;;;5046779;28;20021;-75
2022/12/06 02:43:42;;;;;;;9.90;3.80;;;;;;;;;;5046603;28;20501;-76
2022/12/06 02:46:10;;;;;;;5.22;3.03;;;;;;;;;;5046765;28;20045;-76
2022/12/06 02:48:37;;;;;;;6.22;3.33;;;;;;;;;;5046806;28;20043;-75
2022/12/06 02:51:09;;;;;;;6.32;3.15;;;;;;;;;;5046765;28;20061;-75
2022/12/06 02:53:37;;;;;;;5.85;3.20;;;;;;;;;;5046822;28;20544;-76
2022/12/06 02:56:04;;;;;;;7.78;3.45;;;;;;;;;;5046509;28;20029;-76
2022/12/06 02:58:35;;;;;;;7.47;3.50;;;;;;;;;;5046410;28;20158;-75
2022/12/06 03:01:03;;;;;;;6.22;3.30;;;;;;;;;;5046409;28;20025;-75
2022/12/06 03:03:28;;;;;;;6.00;3.63;;;;;;;;;;5046815;28;20488;-76
2022/12/06 03:06:00;;;;;;;8.20;3.67;;;;;;;;;;5046576;28;20032;-74
2022/12/06 03:08:45;;;;;;;8.68;3.50;;;;;;;;;;5046624;28;20108;-74
2022/12/06 03:11:11;;;;;;;7.07;3.38;;;;;;;;;;5046663;28;20047;-75
2022/12/06 03:13:52;;;;;;;8.43;3.63;;;;;;;;;;5046469;28;20025;-74
2022/12/06 03:16:33;;;;;;;7.75;3.90;;;;;;;;;;5046272;28;20021;-75
2022/12/06 03:19:11;;;;;;;7.32;3.50;;;;;;;;;;5047214;28;20158;-75
2022/12/06 03:21:45;;;;;;;6.40;3.67;;;;;;;;;;5049569;28;20017;-75
2022/12/06 03:24:14;;;;;;;6.65;3.40;;;;;;;;;;5050122;28;20027;-73
2022/12/06 03:26:42;;;;;;;6.55;3.75;;;;;;;;;;5049686;28;20021;-74
2022/12/06 03:29:09;;;;;;;8.52;3.70;;;;;;;;;;5049785;28;20062;-74
2022/12/06 03:31:37;;;;;;;8.57;3.67;;;;;;;;;;5049684;28;20029;-75
2022/12/06 03:34:11;;;;;;;7.15;3.80;;;;;;;;;;5049683;28;20137;-74
2022/12/06 03:36:38;;;;;;;7.75;3.90;;;;;;;;;;5049320;28;20032;-74
2022/12/06 03:39:06;;;;;;;6.68;3.75;;;;;;;;;;5049707;28;20116;-73
2022/12/06 03:41:38;;;;;;;7.25;4.13;;;;;;;;;;5049661;28;20496;-73
2022/12/06 03:44:03;;;;;;;6.55;3.58;;;;;;;;;;5049721;28;20029;-74
2022/12/06 03:46:34;;;;;;;7.13;3.75;;;;;;;;;;5049595;28;20078;-75
2022/12/06 03:49:04;;;;;;;7.15;3.53;;;;;;;;;;5049474;28;20021;-74
2022/12/06 03:51:32;;;;;;;6.10;3.50;;;;;;;;;;5048235;28;20037;-75
2022/12/06 03:54:01;;;;;;;6.63;3.20;;;;;;;;;;5049246;28;20048;-74
2022/12/06 03:56:26;;;;;;;6.35;3.00;;;;;;;;;;5049151;28;20488;-73
2022/12/06 03:58:52;;;;;;;8.73;3.50;;;;;;;;;;5049320;28;20025;-74
2022/12/06 04:01:17;;;;;;;8.27;3.40;;;;;;;;;;5049464;28;20029;-73
2022/12/06 04:03:43;;;;;;;5.25;2.90;;;;;;;;;;5049708;28;20029;-75
2022/12/06 04:06:09;;;;;;;5.93;3.15;;;;;;;;;;5049304;28;20069;-74
2022/12/06 04:08:35;;;;;;;5.68;3.30;;;;;;;;;;5049173;28;20033;-75
2022/12/06 04:11:00;;;;;;;6.25;3.40;;;;;;;;;;5049040;28;20050;-73
2022/12/06 04:13:27;;;;;;;7.05;3.40;;;;;;;;;;5047725;28;20057;-78
2022/12/06 04:15:58;;;;;;;5.47;3.33;;;;;;;;;;5049045;28;20029;-77
2022/12/06 04:18:24;;;;;;;5.18;2.95;;;;;;;;;;5049214;28;20025;-76
2022/12/06 04:23:41;;;;;;;5.07;2.80;;;;;;;;;;5049313;28;20063;-75
2022/12/06 04:26:09;;;;;;;5.95;3.35;;;;;;;;;;5048456;28;20017;-75
2022/12/06 04:39:32;;;;;;;4.68;2.72;;;;;;;;;;5048742;28;20039;-74
2022/12/06 04:44:42;;;;;;;4.53;2.90;;;;;;;;;;5049016;28;20502;-75
2022/12/06 04:47:08;;;;;;;4.85;3.00;;;;;;;;;;5048493;28;20029;-74
2022/12/06 04:49:35;;;;;;;5.65;3.15;;;;;;;;;;5048606;28;20433;-75
2022/12/06 04:52:00;;;;;;;8.45;3.30;;;;;;;;;;5048309;28;20029;-76
2022/12/06 04:54:26;;;;;;;6.25;2.97;;;;;;;;;;5048752;28;20033;-76
2022/12/06 04:56:52;;;;;;;5.22;3.20;;;;;;;;;;5048401;28;20045;-76
2022/12/06 04:59:17;;;;;;;6.68;2.80;;;;;;;;;;5048281;28;20029;-75
2022/12/06 05:01:43;;;;;;;6.30;3.00;;;;;;;;;;5048024;28;20594;-75
2022/12/06 05:04:08;;;;;;;5.95;3.30;;;;;;;;;;5048528;28;20029;-75
2022/12/06 05:06:34;;;;;;;4.93;2.80;;;;;;;;;;5048326;28;20033;-75
2022/12/06 05:09:00;;;;;;;5.65;2.95;;;;;;;;;;5048355;28;20036;-75
2022/12/06 05:11:25;;;;;;;6.57;3.10;;;;;;;;;;5048423;28;20032;-75
2022/12/06 05:13:50;;;;;;;5.15;2.90;;;;;;;;;;5048056;28;20096;-75
2022/12/06 05:16:16;;;;;;;4.28;2.72;;;;;;;;;;5048140;28;20464;-75
2022/12/06 05:18:41;;;;;;;4.22;2.58;;;;;;;;;;5048035;28;20124;-74
2022/12/06 05:21:11;;;;;;;6.30;2.90;;;;;;;;;;5048151;28;20116;-74
2022/12/06 05:23:37;;;;;;;5.40;2.88;;;;;;;;;;5046581;28;20033;-74
2022/12/06 05:26:09;;;;;;;7.18;2.72;;;;;;;;;;5048145;28;20039;-74
2022/12/06 05:28:35;;;;;;;5.97;3.03;;;;;;;;;;5047626;28;20027;-74
2022/12/06 05:31:01;;;;;;;6.63;3.10;;;;;;;;;;5048237;28;20021;-75
2022/12/06 05:33:27;;;;;;;5.35;3.28;;;;;;;;;;5047776;28;20480;-74
2022/12/06 05:35:53;;;;;;;5.30;2.88;;;;;;;;;;5047767;28;20025;-74
2022/12/06 05:38:19;;;;;;;5.10;2.90;;;;;;;;;;5047407;28;20106;-74
2022/12/06 05:40:45;;;;;;;5.82;2.97;;;;;;;;;;5047900;28;20022;-75
2022/12/06 05:43:11;;;;;;;7.38;3.00;;;;;;;;;;5047024;28;20381;-74
2022/12/06 05:45:37;;;;;;;6.88;3.08;;;;;;;;;;5047744;28;20029;-73
2022/12/06 05:48:03;;;;;;;5.65;3.40;;;;;;;;;;5047572;28;20480;-74
2022/12/06 05:50:28;;;;;;;7.10;3.42;;;;;;;;;;5047763;28;20108;-75
2022/12/06 05:52:55;;;;;;;9.18;4.03;;;;;;;;;;5047200;28;20408;-73
2022/12/06 05:55:20;;;;;;;7.25;3.70;;;;;;;;;;5047664;28;20041;-73
2022/12/06 05:57:45;;;;;;;6.63;3.42;;;;;;;;;;5047065;28;20029;-76
2022/12/06 06:00:11;;;;;;;5.78;3.20;;;;;;;;;;5047495;28;20017;-74
2022/12/06 06:02:37;;;;;;;5.28;3.42;;;;;;;;;;5047414;28;20377;-75
2022/12/06 06:05:03;;;;;;;5.78;3.33;;;;;;;;;;5047695;28;20108;-76
2022/12/06 06:07:28;;;;;;;5.30;3.28;;;;;;;;;;5047305;28;20048;-74
2022/12/06 06:09:54;;;;;;;6.57;3.42;;;;;;;;;;5045847;28;20037;-76
2022/12/06 06:12:19;;;;;;;8.23;3.13;;;;;;;;;;5046957;28;20058;-76
2022/12/06 06:14:45;;;;;;;6.00;3.25;;;;;;;;;;5047521;28;20021;-76
2022/12/06 06:17:10;;;;;;;5.63;3.30;;;;;;;;;;5047159;27;20063;-76
2022/12/06 06:19:36;;;;;;;7.30;3.33;;;;;;;;;;5047066;28;20108;-75
2022/12/06 06:22:01;;;;;;;7.22;3.55;;;;;;;;;;5047261;28;20125;-75
2022/12/06 06:24:26;;;;;;;6.28;3.20;;;;;;;;;;5047232;28;20071;-76
2022/12/06 06:26:52;;;;;;;6.00;3.22;;;;;;;;;;5047143;28;20037;-76
2022/12/06 06:29:17;;;;;;;6.28;3.53;;;;;;;;;;5046471;28;20029;-76
2022/12/06 06:31:42;;;;;;;5.60;3.22;;;;;;;;;;5047067;28;20074;-75
2022/12/06 06:34:08;;;;;;;5.90;3.38;;;;;;;;;;5047195;28;20021;-76
2022/12/06 06:36:33;;;;;;;5.97;3.33;;;;;;;;;;5047100;28;20047;-74
2022/12/06 06:38:58;;;;;;;5.65;3.40;;;;;;;;;;5046801;28;20029;-76
2022/12/06 06:41:24;;;;;;;6.00;3.15;;;;;;;;;;5045827;28;20025;-75
2022/12/06 06:43:50;;;;;;;5.53;3.38;;;;;;;;;;5046718;28;20037;-75
2022/12/06 06:46:15;;;;;;;6.20;3.80;;;;;;;;;;5046972;28;20089;-75
2022/12/06 06:48:40;;;;;;;6.25;3.40;;;;;;;;;;5046362;28;20021;-75
2022/12/06 06:51:11;;;;;;;7.97;4.13;;;;;;;;;;5046874;28;20029;-76
2022/12/06 06:53:37;;;;;;;7.95;3.72;;;;;;;;;;5046510;28;20045;-76
2022/12/06 06:56:03;;;;;;;7.53;3.80;;;;;;;;;;5050360;28;20053;-75
2022/12/06 06:58:29;;;;;;;6.70;3.50;;;;;;;;;;5050383;28;20040;-76
2022/12/06 07:00:56;;;;;;;6.90;3.40;;;;;;;;;;5050253;28;20025;-76
2022/12/06 07:03:22;;;;;;;7.20;3.83;;;;;;;;;;5049778;28;20065;-75
2022/12/06 07:06:02;;;;;;;6.05;3.72;;;;;;;;;;5050061;28;20058;-74
2022/12/06 07:08:29;;;;;;;8.57;4.00;;;;;;;;;;5050001;28;20028;-74
2022/12/06 07:10:55;;;;;;;6.45;3.78;;;;;;;;;;5050098;28;20493;-76
2022/12/06 07:13:22;;;;;;;8.13;3.90;;;;;;;;;;5049601;28;20032;-74
2022/12/06 07:15:48;;;;;;;6.72;3.53;;;;;;;;;;5049952;28;20033;-74
2022/12/06 07:18:14;;;;;;;7.70;3.80;;;;;;;;;;5049725;28;20108;-75
2022/12/06 07:20:40;;;;;;;9.85;4.78;;;;;;;;;;5049556;28;20036;-75
2022/12/06 07:23:05;;;;;;;9.73;4.70;;;;;;;;;;5049448;28;20037;-74
2022/12/06 07:25:31;;;;;;;7.30;4.20;;;;;;;;;;5049747;28;20031;-74
2022/12/06 07:27:56;;;;;;;8.77;4.75;;;;;;;;;;5049810;28;20033;-74
2022/12/06 07:30:22;;;;;;;8.07;4.22;;;;;;;;;;5049625;28;20036;-74
2022/12/06 07:32:48;;;;;;;12.13;4.55;;;;;;;;;;5049621;28;20025;-75
2022/12/06 07:35:13;;;;;;;6.70;3.78;;;;;;;;;;5049581;28;20025;-74
2022/12/06 07:37:41;;;;;;;6.88;3.65;;;;;;;;;;5049651;28;20038;-74
2022/12/06 07:40:07;;;;;;;6.93;3.78;;;;;;;;;;5049141;28;20089;-76
2022/12/06 07:45:17;;;;;;;9.70;4.13;;;;;;;;;;5049940;28;20040;-77
2022/12/06 07:47:43;;;;;;;8.10;4.20;;;;;;;;;;5049821;28;20021;-76
2022/12/06 07:50:16;;;;;;;7.57;3.95;;;;;;;;;;5049144;28;20025;-76
2022/12/06 07:52:42;;;;;;;7.57;4.20;;;;;;;;;;5049474;28;20041;-74
2022/12/06 07:55:09;;;;;;;8.43;3.92;;;;;;;;;;5049163;28;20124;-74
2022/12/06 07:57:34;;;;;;;6.72;3.58;;;;;;;;;;5049178;28;20404;-73
2022/12/06 08:00:00;;;;;;;9.43;3.78;;;;;;;;;;5049013;28;20040;-75
2022/12/06 08:02:27;;;;;;;5.57;3.15;;;;;;;;;;5049382;27;20041;-75
2022/12/06 08:04:52;;;;;;;8.35;3.47;;;;;;;;;;5048361;28;20025;-75
2022/12/06 08:07:18;;;;;;;6.13;3.50;;;;;;;;;;5049396;28;20021;-75
2022/12/06 08:09:44;;;;;;;5.50;2.92;;;;;;;;;;5048966;28;20037;-75
2022/12/06 08:12:10;;;;;;;5.07;2.97;;;;;;;;;;5049068;28;20025;-73
2022/12/06 08:14:35;;;;;;;6.78;3.60;;;;;;;;;;5048656;28;20170;-74
2022/12/06 08:17:02;;;;;;;6.80;3.45;;;;;;;;;;5049205;28;20112;-73
2022/12/06 08:19:27;;;;;;;8.30;3.55;;;;;;;;;;5048747;28;20029;-74
2022/12/06 08:21:52;;;;;;;12.88;3.97;;;;;;;;;;5048982;28;20056;-74
2022/12/06 08:24:18;;;;;;;8.32;3.85;;;;;;;;;;5048841;28;20028;-74
2022/12/06 08:26:44;;;;;;;7.90;4.28;;;;;;;;;;5049067;28;20063;-75
2022/12/06 08:29:09;;;;;;;7.25;3.78;;;;;;;;;;5048522;28;20025;-76
2022/12/06 08:31:35;;;;;;;6.65;3.90;;;;;;;;;;5048690;28;20020;-75
2022/12/06 08:34:01;;;;;;;8.25;3.70;;;;;;;;;;5047223;28;20112;-75
2022/12/06 08:36:27;;;;;;;7.47;3.47;;;;;;;;;;5049051;28;20567;-75
2022/12/06 08:38:54;;;;;;;8.45;3.80;;;;;;;;;;5048787;28;20654;-77
2022/12/06 08:44:06;;;;;;;8.68;3.80;;;;;;;;;;5048636;28;20040;-75
2022/12/06 08:46:33;;;;;;;9.02;3.90;;;;;;;;;;5048624;28;20039;-75
2022/12/06 08:49:00;;;;;;;8.10;3.78;;;;;;;;;;5048384;28;20025;-74
2022/12/06 08:51:26;;;;;;;7.80;3.70;;;;;;;;;;5046790;28;20036;-74
2022/12/06 08:53:53;;;;;;;7.80;3.90;;;;;;;;;;5046904;28;20521;-74
2022/12/06 08:56:18;;;;;;;10.73;4.38;;;;;;;;;;5048340;28;20124;-74
2022/12/06 08:58:44;;;;;;;9.07;4.38;;;;;;;;;;5048416;28;20104;-76
2022/12/06 09:01:15;;;;;;;9.23;4.38;;;;;;;;;;5048048;28;20048;-74
2022/12/06 09:03:40;;;;;;;10.35;4.43;;;;;;;;;;5047139;28;20116;-74
2022/12/06 09:06:07;;;;;;;8.68;4.00;;;;;;;;;;5048151;28;20125;-75
2022/12/06 09:08:32;;;;;;;7.80;4.30;;;;;;;;;;5048207;28;20025;-75
2022/12/06 09:10:58;;;;;;;8.40;4.25;;;;;;;;;;5047935;28;20032;-75
2022/12/06 09:13:23;;;;;;;10.15;4.40;;;;;;;;;;5048332;28;20017;-75
2022/12/06 09:15:48;;;;;;;8.25;4.30;;;;;;;;;;5047976;28;20017;-75
2022/12/06 09:18:14;;;;;;;10.80;4.20;;;;;;;;;;5047281;28;20457;-75
2022/12/06 09:20:41;;;;;;;8.38;4.10;;;;;;;;;;5047761;28;20070;-74
2022/12/06 09:23:06;;;;;;;8.65;3.75;;;;;;;;;;5047811;28;20033;-74
2022/12/06 09:25:32;;;;;;;11.60;4.45;;;;;;;;;;5047740;28;20116;-74
2022/12/06 09:27:58;;;;;;;7.63;4.10;;;;;;;;;;5047763;28;20025;-74
2022/12/06 09:30:23;;;;;;;9.98;4.57;;;;;;;;;;5047592;28;20041;-73
2022/12/06 09:32:49;;;;;;;9.88;4.10;;;;;;;;;;5047962;28;20104;-74
2022/12/06 09:35:14;;;;;;;7.38;4.25;;;;;;;;;;5047746;28;20020;-74
2022/12/06 09:37:40;;;;;;;6.18;3.78;;;;;;;;;;5047949;28;20044;-75
2022/12/06 09:40:15;;;;;;;6.55;3.42;;;;;;;;;;5047362;28;20029;-74
2022/12/06 09:42:50;;;;;;;7.18;3.75;;;;;;;;;;5047504;28;20017;-74
2022/12/06 09:45:43;;;;;;;6.10;3.80;;;;;;;;;;5047504;28;20259;-75
2022/12/06 09:48:30;;;;;;;8.65;4.22;;;;;;;;;;5047817;28;20036;-74
2022/12/06 09:51:18;;;;;;;8.30;3.85;;;;;;;;;;5045920;28;20032;-74
2022/12/06 09:54:07;;;;;;;8.70;4.32;;;;;;;;;;5047467;28;20044;-73
2022/12/06 09:56:39;;;;;;;6.82;4.00;;;;;;;;;;5041349;27;20041;-75
2022/12/06 09:59:20;;;;;;;8.55;4.60;;;;;;;;;;5047417;28;20025;-74
2022/12/06 10:02:08;;;;;;;9.85;4.32;;;;;;;;;;5046983;28;20217;-73
2022/12/06 10:04:45;;;;;;;8.88;4.70;;;;;;;;;;5047453;28;20165;-75
2022/12/06 10:07:25;;;;;;;6.43;3.92;;;;;;;;;;5046152;28;20173;-75
2022/12/06 10:10:17;;;;;;;11.65;5.70;;;;;;;;;;5047362;28;20564;-75
2022/12/06 10:13:13;;;;;;;8.77;5.03;;;;;;;;;;5046129;28;20062;-76
2022/12/06 10:16:11;;;;;;;10.30;5.13;;;;;;;;;;5046978;28;20029;-77
2022/12/06 10:18:42;;;;;;;9.00;5.18;;;;;;;;;;5047293;28;20037;-74
2022/12/06 10:21:20;;;;;;;11.77;5.75;;;;;;;;;;5046819;28;20025;-75
2022/12/06 10:23:56;;;;;;;10.20;5.30;;;;;;;;;;5047028;28;20142;-74
2022/12/06 10:26:41;;;;;;;10.50;5.15;;;;;;;;;;5046986;28;20033;-76
2022/12/06 10:29:33;;;;;;;10.30;5.50;;;;;;;;;;5046403;28;20078;-75
2022/12/06 10:32:23;;;;;;;13.02;5.53;;;;;;;;;;5040920;28;20100;-76
2022/12/06 10:35:05;;;;;;;11.85;5.80;;;;;;;;;;5047040;28;20073;-75
2022/12/06 10:38:08;;;;;;;9.20;5.22;;;;;;;;;;5046688;28;20116;-76
2022/12/06 10:40:43;;;;;;;8.38;4.85;;;;;;;;;;5031184;28;20066;-74
2022/12/06 10:43:26;;;;;;;10.82;5.25;;;;;;;;;;5046904;28;20081;-75
2022/12/06 10:48:59;;;;;;;9.75;4.15;;;;;;;;;;5047084;28;20040;-74
2022/12/06 10:51:33;;;;;;;8.23;3.83;;;;;;;;;;5044979;28;20033;-75
2022/12/06 10:54:09;;;;;;;7.20;3.78;;;;;;;;;;5046596;28;20056;-74
2022/12/06 10:56:39;;;;;;;7.50;3.97;;;;;;;;;;5046627;28;20029;-74
2022/12/06 10:59:25;;;;;;;8.67;3.50;;;;;;;;;;5046770;28;20025;-74
2022/12/06 11:01:53;;;;;;;6.63;3.35;;;;;;;;;;5046421;28;20047;-74
2022/12/06 11:04:24;;;;;;;6.97;3.25;;;;;;;;;;5046758;28;20397;-73
2022/12/06 11:06:55;;;;;;;8.82;3.53;;;;;;;;;;5046412;28;20032;-73
2022/12/06 11:09:33;;;;;;;5.80;3.55;;;;;;;;;;5046551;28;20036;-74
2022/12/06 11:11:58;;;;;;;6.20;3.40;;;;;;;;;;5046151;28;20029;-74
2022/12/06 11:14:48;;;;;;;7.88;3.65;;;;;;;;;;5046357;28;20025;-74
2022/12/06 11:17:30;;;;;;;6.10;3.40;;;;;;;;;;5046354;28;20116;-74
2022/12/06 11:20:01;;;;;;;10.13;3.72;;;;;;;;;;5046623;28;20033;-74
2022/12/06 11:22:44;;;;;;;10.48;3.97;;;;;;;;;;5046254;28;20502;-74
2022/12/06 11:25:18;;;;;;;9.68;3.60;;;;;;;;;;5046153;28;20061;-73
2022/12/06 11:28:10;;;;;;;7.95;3.33;;;;;;;;;;5045894;28;20018;-74
2022/12/06 11:30:36;;;;;;;6.18;3.85;;;;;;;;;;5046036;27;20419;-77
2022/12/06 11:33:03;;;;;;;10.05;3.75;;;;;;;;;;5046320;28;20449;-76
2022/12/06 11:35:28;;;;;;;8.65;4.65;;;;;;;;;;5046402;28;20025;-75
2022/12/06 11:37:58;;;;;;;10.38;4.80;;;;;;;;;;5046017;28;20500;-74
2022/12/06 11:40:30;;;;;;;7.82;4.38;;;;;;;;;;5047475;28;20033;-75
2022/12/06 11:43:01;;;;;;;8.07;4.70;;;;;;;;;;5047967;28;20032;-75
2022/12/06 11:45:36;;;;;;;10.70;5.10;;;;;;;;;;5049643;28;20032;-74
2022/12/06 11:48:13;;;;;;;10.43;5.85;;;;;;;;;;5049415;28;20060;-77
2022/12/06 11:50:41;;;;;;;10.35;6.28;;;;;;;;;;5049502;28;20178;-77
2022/12/06 11:53:27;;;;;;;13.18;7.32;;;;;;;;;;5049242;28;20053;-77
2022/12/06 11:55:56;;;;;;;12.25;5.80;;;;;;;;;;5049488;28;20051;-75
2022/12/06 11:58:42;;;;;;;10.38;5.47;;;;;;;;;;5049251;28;20039;-75
2022/12/06 12:01:10;;;;;;;8.10;4.47;;;;;;;;;;5049003;28;20032;-75
2022/12/06 12:03:38;;;;;;;8.55;4.93;;;;;;;;;;5049253;28;20614;-75
2022/12/06 12:06:07;;;;;;;8.32;4.82;;;;;;;;;;5049298;28;20048;-75
2022/12/06 12:08:32;;;;;;;9.18;5.05;;;;;;;;;;5049198;28;20100;-77
2022/12/06 12:10:59;;;;;;;8.13;4.35;;;;;;;;;;5049148;28;20174;-76
2022/12/06 12:13:45;;;;;;;7.63;4.63;;;;;;;;;;5049059;28;20025;-76
2022/12/06 12:16:22;;;;;;;8.25;4.50;;;;;;;;;;5048906;28;20025;-76
2022/12/06 12:18:54;;;;;;;8.88;4.55;;;;;;;;;;5048981;28;20029;-76
2022/12/06 12:21:49;;;;;;;8.27;4.38;;;;;;;;;;5048680;28;20036;-78
2022/12/06 12:24:47;;;;;;;8.80;3.92;;;;;;;;;;5048964;28;20040;-77
2022/12/06 12:27:35;;;;;;;7.55;4.18;;;;;;;;;;5048695;28;20028;-77
2022/12/06 12:30:21;;;;;;;8.30;4.05;;;;;;;;;;5048923;28;20033;-77
2022/12/06 12:32:49;;;;;;;9.13;4.18;;;;;;;;;;5048506;28;20037;-77
2022/12/06 12:35:20;;;;;;;9.23;4.30;;;;;;;;;;5049061;28;20025;-76
2022/12/06 12:37:53;;;;;;;8.38;4.47;;;;;;;;;;5047019;28;20037;-76
2022/12/06 12:40:24;;;;;;;8.00;3.88;;;;;;;;;;5048732;28;20109;-75
2022/12/06 12:42:56;;;;;;;;;;;;;;;;;;5049028;27;20021;-75
2022/12/06 12:45:22;;;;;;;8.63;3.83;;;;;;;;;;5048836;28;19951;-75
2022/12/06 12:47:58;;;;;;;9.13;4.38;;;;;;;;;;5048439;28;20061;-77
2022/12/06 12:50:24;;;;;;;7.03;3.83;;;;;;;;;;5048976;28;20029;-76
2022/12/06 12:52:51;;;;;;;6.20;3.90;;;;;;;;;;5047899;28;20559;-74
2022/12/06 12:55:18;;;;;;;6.68;3.63;;;;;;;;;;5048492;28;20025;-77
2022/12/06 12:57:48;;;;;;;7.13;3.67;;;;;;;;;;5048051;28;20025;-75
2022/12/06 13:00:22;;;;;;;6.03;3.40;;;;;;;;;;5048681;28;20029;-74
2022/12/06 13:02:56;;;;;;;8.98;3.95;;;;;;;;;;5048102;28;20025;-74
2022/12/06 13:05:30;;;;;;;7.57;3.88;;;;;;;;;;5048489;28;20655;-76
2022/12/06 13:08:11;;;;;;;10.77;3.92;;;;;;;;;;5048198;28;20029;-77
2022/12/06 13:10:38;;;;;;;8.38;3.72;;;;;;;;;;5048323;28;20052;-75
2022/12/06 13:13:29;;;;;;;12.02;4.07;;;;;;;;;;5047475;28;20029;-77
2022/12/06 13:15:57;;;;;;;8.45;4.05;;;;;;;;;;5048149;28;20165;-76
2022/12/06 13:18:30;;;;;;;9.88;3.90;;;;;;;;;;5048081;28;20033;-76
2022/12/06 13:21:13;;;;;;;8.60;4.00;;;;;;;;;;5048419;28;20036;-74
2022/12/06 13:23:39;;;;;;;9.55;4.10;;;;;;;;;;5048002;28;20061;-76
2022/12/06 13:26:44;;;;;;;6.85;4.07;;;;;;;;;;5047980;28;20109;-75
2022/12/06 13:29:37;;;;;;;10.20;4.35;;;;;;;;;;5047576;28;20106;-76
2022/12/06 13:32:13;;;;;;;10.10;4.30;;;;;;;;;;5047611;28;20040;-76
2022/12/06 13:34:46;;;;;;;5.93;3.88;;;;;;;;;;5048087;28;20032;-75
2022/12/06 13:37:42;;;;;;;6.93;3.50;;;;;;;;;;5047779;28;20097;-74
2022/12/06 13:40:31;;;;;;;6.60;3.50;;;;;;;;;;5048003;28;20029;-73
2022/12/06 13:42:56;;;;;;;9.95;3.63;;;;;;;;;;5047274;28;20485;-74
2022/12/06 13:45:44;;;;;;;9.05;3.80;;;;;;;;;;5047748;28;20044;-74
2022/12/06 13:48:24;;;;;;;7.45;3.67;;;;;;;;;;5047307;28;20062;-75
2022/12/06 13:51:01;;;;;;;6.88;3.42;;;;;;;;;;5047758;28;20078;-76
2022/12/06 13:53:32;;;;;;;12.10;3.50;;;;;;;;;;5047132;28;20037;-78
2022/12/06 13:56:01;;;;;;;7.47;3.72;;;;;;;;;;5047708;28;20464;-76
2022/12/06 13:58:26;;;;;;;9.57;3.70;;;;;;;;;;5047450;28;20025;-76
2022/12/06 14:00:55;;;;;;;6.03;3.33;;;;;;;;;;5047564;28;20089;-75
2022/12/06 14:03:20;;;;;;;8.25;3.80;;;;;;;;;;5046531;28;20033;-76
2022/12/06 14:06:03;;;;;;;7.40;3.70;;;;;;;;;;5047443;28;20029;-75
2022/12/06 14:08:32;;;;;;;8.07;3.65;;;;;;;;;;5045861;28;20533;-74
2022/12/06 14:11:11;;;;;;;7.30;3.65;;;;;;;;;;5047487;28;20044;-74
2022/12/06 14:13:37;;;;;;;7.57;3.70;;;;;;;;;;5046832;28;20484;-75
2022/12/06 14:16:04;;;;;;;8.57;4.00;;;;;;;;;;5047375;28;20029;-76
2022/12/06 14:18:32;;;;;;;8.68;4.57;;;;;;;;;;5047128;28;20492;-73
2022/12/06 14:20:58;;;;;;;10.75;5.22;;;;;;;;;;5047221;28;20213;-74
2022/12/06 14:23:34;;;;;;;12.70;5.60;;;;;;;;;;5046862;28;20129;-74
2022/12/06 14:26:12;;;;;;;11.98;5.80;;;;;;;;;;5046988;28;20060;-75
2022/12/06 14:28:38;;;;;;;15.65;6.80;;;;;;;;;;5046872;28;20597;-74
2022/12/06 14:31:26;;;;;;;11.30;5.82;;;;;;;;;;5047350;28;20104;-75
2022/12/06 14:33:52;;;;;;;7.93;4.45;;;;;;;;;;5046827;28;20024;-74
2022/12/06 14:36:26;;;;;;;10.48;4.47;;;;;;;;;;5046811;28;20033;-74
2022/12/06 14:38:55;;;;;;;10.30;4.82;;;;;;;;;;5046850;28;20029;-74
2022/12/06 14:44:14;;;;;;;8.45;4.20;;;;;;;;;;5046625;28;20084;-73
2022/12/06 14:46:40;;;;;;;10.88;4.30;;;;;;;;;;5045545;28;20037;-74
2022/12/06 14:51:55;;;;;;;9.48;4.18;;;;;;;;;;5046760;28;20129;-75
2022/12/06 14:54:26;;;;;;;8.30;4.15;;;;;;;;;;5046734;28;20041;-75
2022/12/06 14:56:52;;;;;;;8.95;4.32;;;;;;;;;;5046592;28;20032;-75
2022/12/06 14:59:20;;;;;;;9.38;4.10;;;;;;;;;;5046201;28;20033;-75
2022/12/06 15:01:48;;;;;;;8.45;4.38;;;;;;;;;;5046476;28;20077;-74
2022/12/06 15:04:37;;;;;;;8.77;4.20;;;;;;;;;;5046771;28;20035;-74
2022/12/06 15:07:03;;;;;;;9.10;4.13;;;;;;;;;;5045412;28;20056;-74
2022/12/06 15:09:30;;;;;;;9.07;4.68;;;;;;;;;;5046599;28;20066;-73
2022/12/06 15:15:01;;;;;;;10.20;4.53;;;;;;;;;;5046950;28;20100;-75
2022/12/06 15:17:27;;;;;;;9.95;4.72;;;;;;;;;;5049965;28;20036;-73
2022/12/06 15:19:53;;;;;;;7.95;4.50;;;;;;;;;;5049968;28;20400;-74
2022/12/06 15:22:21;;;;;;;8.90;4.28;;;;;;;;;;5048678;28;20041;-74
2022/12/06 15:24:53;;;;;;;16.80;5.38;;;;;;;;;;5049828;28;20068;-76
2022/12/06 15:27:20;;;;;;;9.25;5.32;;;;;;;;;;5050064;28;20051;-76
2022/12/06 15:29:46;;;;;;;14.80;5.90;;;;;;;;;;5049531;28;20056;-73
2022/12/06 15:32:20;;;;;;;10.10;5.63;;;;;;;;;;5049603;28;20048;-74
2022/12/06 15:34:45;;;;;;;10.63;6.15;;;;;;;;;;5049436;28;20182;-74